sensor_id;sensor_type;location;lat;lon;timestamp;P1;durP1;ratioP1;P2;durP2;ratioP2
49450;SDS011;35336;48.400;10.886;2023-04-03T00:00:01;2.70;;;2.10;;
49450;SDS011;35336;48.400;10.886;2023-04-03T00:00:16;3.78;;;2.10;;
49450;SDS011;35336;48.400;10.886;2023-04-03T00:00:32;3.80;;;2.10;;
49450;SDS011;35336;48.400;10.886;2023-04-03T00:00:47;5.53;;;2.40;;
49450;SDS011;35336;48.400;10.886;2023-04-03T00:01:02;5.80;;;2.30;;
49450;SDS011;35336;48.400;10.886;2023-04-03T00:01:18;2.80;;;2.20;;
49450;SDS011;35336;48.400;10.886;2023-04-03T00:01:34;3.72;;;2.28;;
49450;SDS011;35336;48.400;10.886;2023-04-03T00:01:49;5.17;;;2.40;;
49450;SDS011;35336;48.400;10.886;2023-04-03T00:02:05;4.40;;;2.60;;
49450;SDS011;35336;48.400;10.886;2023-04-03T00:02:20;4.45;;;2.60;;
49450;SDS011;35336;48.400;10.886;2023-04-03T00:02:35;4.13;;;2.50;;
49450;SDS011;35336;48.400;10.886;2023-04-03T00:02:51;2.80;;;2.33;;
49450;SDS011;35336;48.400;10.886;2023-04-03T00:03:06;2.80;;;2.15;;
49450;SDS011;35336;48.400;10.886;2023-04-03T00:03:21;3.87;;;2.23;;
49450;SDS011;35336;48.400;10.886;2023-04-03T00:03:37;3.75;;;2.08;;
49450;SDS011;35336;48.400;10.886;2023-04-03T00:03:52;3.70;;;2.00;;
49450;SDS011;35336;48.400;10.886;2023-04-03T00:04:08;3.73;;;2.17;;
49450;SDS011;35336;48.400;10.886;2023-04-03T00:04:23;3.05;;;2.13;;
49450;SDS011;35336;48.400;10.886;2023-04-03T00:04:38;4.67;;;2.10;;
49450;SDS011;35336;48.400;10.886;2023-04-03T00:04:54;4.50;;;2.22;;
49450;SDS011;35336;48.400;10.886;2023-04-03T00:05:09;3.90;;;2.30;;
49450;SDS011;35336;48.400;10.886;2023-04-03T00:05:24;4.60;;;2.40;;
49450;SDS011;35336;48.400;10.886;2023-04-03T00:05:40;3.92;;;2.28;;
49450;SDS011;35336;48.400;10.886;2023-04-03T00:05:55;2.80;;;1.90;;
49450;SDS011;35336;48.400;10.886;2023-04-03T00:06:11;2.57;;;2.13;;
49450;SDS011;35336;48.400;10.886;2023-04-03T00:06:26;2.80;;;2.33;;
49450;SDS011;35336;48.400;10.886;2023-04-03T00:06:42;3.00;;;2.03;;
49450;SDS011;35336;48.400;10.886;2023-04-03T00:06:57;3.00;;;2.03;;
49450;SDS011;35336;48.400;10.886;2023-04-03T00:07:12;2.40;;;2.20;;
49450;SDS011;35336;48.400;10.886;2023-04-03T00:07:28;3.63;;;2.28;;
49450;SDS011;35336;48.400;10.886;2023-04-03T00:07:43;4.03;;;2.20;;
49450;SDS011;35336;48.400;10.886;2023-04-03T00:07:58;2.83;;;2.20;;
49450;SDS011;35336;48.400;10.886;2023-04-03T00:08:14;3.63;;;2.38;;
49450;SDS011;35336;48.400;10.886;2023-04-03T00:08:29;3.90;;;2.27;;
49450;SDS011;35336;48.400;10.886;2023-04-03T00:08:45;3.08;;;2.15;;
49450;SDS011;35336;48.400;10.886;2023-04-03T00:09:00;2.90;;;1.93;;
49450;SDS011;35336;48.400;10.886;2023-04-03T00:09:15;3.65;;;1.92;;
49450;SDS011;35336;48.400;10.886;2023-04-03T00:09:31;3.57;;;2.10;;
49450;SDS011;35336;48.400;10.886;2023-04-03T00:09:46;3.60;;;2.17;;
49450;SDS011;35336;48.400;10.886;2023-04-03T00:10:02;3.80;;;2.35;;
49450;SDS011;35336;48.400;10.886;2023-04-03T00:10:17;3.30;;;2.33;;
49450;SDS011;35336;48.400;10.886;2023-04-03T00:10:33;3.13;;;2.17;;
49450;SDS011;35336;48.400;10.886;2023-04-03T00:10:49;3.17;;;2.08;;
49450;SDS011;35336;48.400;10.886;2023-04-03T00:11:04;3.23;;;2.00;;
49450;SDS011;35336;48.400;10.886;2023-04-03T00:11:20;3.42;;;2.05;;
49450;SDS011;35336;48.400;10.886;2023-04-03T00:11:35;3.50;;;2.30;;
49450;SDS011;35336;48.400;10.886;2023-04-03T00:11:51;2.70;;;2.25;;
49450;SDS011;35336;48.400;10.886;2023-04-03T00:12:06;2.57;;;2.17;;
49450;SDS011;35336;48.400;10.886;2023-04-03T00:12:21;2.90;;;2.25;;
49450;SDS011;35336;48.400;10.886;2023-04-03T00:12:37;2.17;;;1.87;;
49450;SDS011;35336;48.400;10.886;2023-04-03T00:12:52;2.13;;;1.92;;
49450;SDS011;35336;48.400;10.886;2023-04-03T00:13:08;2.27;;;2.07;;
49450;SDS011;35336;48.400;10.886;2023-04-03T00:13:24;2.42;;;1.95;;
49450;SDS011;35336;48.400;10.886;2023-04-03T00:13:40;4.20;;;2.10;;
49450;SDS011;35336;48.400;10.886;2023-04-03T00:13:55;5.43;;;2.22;;
49450;SDS011;35336;48.400;10.886;2023-04-03T00:14:11;4.70;;;2.10;;
49450;SDS011;35336;48.400;10.886;2023-04-03T00:14:26;3.30;;;2.10;;
49450;SDS011;35336;48.400;10.886;2023-04-03T00:14:41;3.00;;;2.08;;
49450;SDS011;35336;48.400;10.886;2023-04-03T00:14:57;3.10;;;2.27;;
49450;SDS011;35336;48.400;10.886;2023-04-03T00:15:12;3.20;;;2.40;;
49450;SDS011;35336;48.400;10.886;2023-04-03T00:15:28;2.60;;;2.05;;
49450;SDS011;35336;48.400;10.886;2023-04-03T00:15:43;3.03;;;1.98;;
49450;SDS011;35336;48.400;10.886;2023-04-03T00:15:59;3.30;;;2.20;;
49450;SDS011;35336;48.400;10.886;2023-04-03T00:16:15;3.43;;;2.33;;
49450;SDS011;35336;48.400;10.886;2023-04-03T00:16:30;2.97;;;2.00;;
49450;SDS011;35336;48.400;10.886;2023-04-03T00:16:45;1.80;;;1.67;;
49450;SDS011;35336;48.400;10.886;2023-04-03T00:17:01;2.10;;;1.80;;
49450;SDS011;35336;48.400;10.886;2023-04-03T00:17:16;5.53;;;2.27;;
49450;SDS011;35336;48.400;10.886;2023-04-03T00:17:31;5.93;;;2.30;;
49450;SDS011;35336;48.400;10.886;2023-04-03T00:17:47;3.23;;;2.00;;
49450;SDS011;35336;48.400;10.886;2023-04-03T00:18:02;2.55;;;2.00;;
49450;SDS011;35336;48.400;10.886;2023-04-03T00:18:18;2.28;;;2.08;;
49450;SDS011;35336;48.400;10.886;2023-04-03T00:18:35;2.33;;;2.10;;
49450;SDS011;35336;48.400;10.886;2023-04-03T00:18:50;2.90;;;2.00;;
49450;SDS011;35336;48.400;10.886;2023-04-03T00:19:06;2.87;;;2.00;;
49450;SDS011;35336;48.400;10.886;2023-04-03T00:19:21;3.20;;;2.00;;
49450;SDS011;35336;48.400;10.886;2023-04-03T00:19:36;4.13;;;2.30;;
49450;SDS011;35336;48.400;10.886;2023-04-03T00:19:52;3.93;;;2.40;;
49450;SDS011;35336;48.400;10.886;2023-04-03T00:20:07;3.38;;;2.30;;
49450;SDS011;35336;48.400;10.886;2023-04-03T00:20:23;3.47;;;2.00;;
49450;SDS011;35336;48.400;10.886;2023-04-03T00:20:38;3.80;;;1.90;;
49450;SDS011;35336;48.400;10.886;2023-04-03T00:20:54;3.37;;;1.90;;
49450;SDS011;35336;48.400;10.886;2023-04-03T00:21:10;2.53;;;1.90;;
49450;SDS011;35336;48.400;10.886;2023-04-03T00:21:27;4.43;;;2.20;;
49450;SDS011;35336;48.400;10.886;2023-04-03T00:21:42;4.60;;;2.27;;
49450;SDS011;35336;48.400;10.886;2023-04-03T00:21:58;3.83;;;2.40;;
49450;SDS011;35336;48.400;10.886;2023-04-03T00:22:13;3.47;;;2.40;;
49450;SDS011;35336;48.400;10.886;2023-04-03T00:22:29;3.33;;;2.00;;
49450;SDS011;35336;48.400;10.886;2023-04-03T00:22:44;4.15;;;2.13;;
49450;SDS011;35336;48.400;10.886;2023-04-03T00:23:00;3.53;;;2.23;;
49450;SDS011;35336;48.400;10.886;2023-04-03T00:23:16;3.25;;;2.03;;
49450;SDS011;35336;48.400;10.886;2023-04-03T00:23:32;3.57;;;1.90;;
49450;SDS011;35336;48.400;10.886;2023-04-03T00:23:47;3.55;;;2.00;;
49450;SDS011;35336;48.400;10.886;2023-04-03T00:24:03;3.13;;;1.90;;
49450;SDS011;35336;48.400;10.886;2023-04-03T00:24:18;2.55;;;1.80;;
49450;SDS011;35336;48.400;10.886;2023-04-03T00:24:34;2.37;;;1.90;;
49450;SDS011;35336;48.400;10.886;2023-04-03T00:24:49;2.95;;;2.03;;
49450;SDS011;35336;48.400;10.886;2023-04-03T00:25:04;2.90;;;1.90;;
49450;SDS011;35336;48.400;10.886;2023-04-03T00:25:20;2.42;;;1.73;;
49450;SDS011;35336;48.400;10.886;2023-04-03T00:25:36;1.98;;;1.73;;
49450;SDS011;35336;48.400;10.886;2023-04-03T00:25:52;2.10;;;1.83;;
49450;SDS011;35336;48.400;10.886;2023-04-03T00:26:08;3.05;;;2.00;;
49450;SDS011;35336;48.400;10.886;2023-04-03T00:26:23;3.13;;;2.07;;
49450;SDS011;35336;48.400;10.886;2023-04-03T00:26:38;2.63;;;1.90;;
49450;SDS011;35336;48.400;10.886;2023-04-03T00:26:54;2.75;;;1.80;;
49450;SDS011;35336;48.400;10.886;2023-04-03T00:27:09;3.77;;;2.10;;
49450;SDS011;35336;48.400;10.886;2023-04-03T00:27:24;4.80;;;2.20;;
49450;SDS011;35336;48.400;10.886;2023-04-03T00:27:40;3.85;;;1.98;;
49450;SDS011;35336;48.400;10.886;2023-04-03T00:27:55;2.73;;;1.90;;
49450;SDS011;35336;48.400;10.886;2023-04-03T00:28:11;3.78;;;1.90;;
49450;SDS011;35336;48.400;10.886;2023-04-03T00:28:26;3.73;;;2.00;;
49450;SDS011;35336;48.400;10.886;2023-04-03T00:28:42;2.30;;;2.10;;
49450;SDS011;35336;48.400;10.886;2023-04-03T00:28:57;2.13;;;1.92;;
49450;SDS011;35336;48.400;10.886;2023-04-03T00:29:12;2.80;;;1.80;;
49450;SDS011;35336;48.400;10.886;2023-04-03T00:29:28;3.75;;;1.90;;
49450;SDS011;35336;48.400;10.886;2023-04-03T00:29:43;2.80;;;1.80;;
49450;SDS011;35336;48.400;10.886;2023-04-03T00:29:58;2.50;;;1.80;;
49450;SDS011;35336;48.400;10.886;2023-04-03T00:30:14;2.95;;;1.88;;
49450;SDS011;35336;48.400;10.886;2023-04-03T00:30:31;3.42;;;1.90;;
49450;SDS011;35336;48.400;10.886;2023-04-03T00:30:50;3.90;;;1.98;;
49450;SDS011;35336;48.400;10.886;2023-04-03T00:31:06;2.47;;;1.65;;
49450;SDS011;35336;48.400;10.886;2023-04-03T00:31:21;2.37;;;1.67;;
49450;SDS011;35336;48.400;10.886;2023-04-03T00:31:37;2.45;;;1.60;;
49450;SDS011;35336;48.400;10.886;2023-04-03T00:31:52;2.47;;;1.67;;
49450;SDS011;35336;48.400;10.886;2023-04-03T00:32:07;3.07;;;1.80;;
49450;SDS011;35336;48.400;10.886;2023-04-03T00:32:23;4.72;;;1.92;;
49450;SDS011;35336;48.400;10.886;2023-04-03T00:32:38;4.67;;;2.00;;
49450;SDS011;35336;48.400;10.886;2023-04-03T00:32:53;2.87;;;1.97;;
49450;SDS011;35336;48.400;10.886;2023-04-03T00:33:11;2.67;;;2.00;;
49450;SDS011;35336;48.400;10.886;2023-04-03T00:33:27;2.72;;;1.90;;
49450;SDS011;35336;48.400;10.886;2023-04-03T00:33:43;3.17;;;1.80;;
49450;SDS011;35336;48.400;10.886;2023-04-03T00:33:58;2.67;;;1.70;;
49450;SDS011;35336;48.400;10.886;2023-04-03T00:34:13;2.03;;;1.55;;
49450;SDS011;35336;48.400;10.886;2023-04-03T00:34:29;3.13;;;1.97;;
49450;SDS011;35336;48.400;10.886;2023-04-03T00:34:44;4.13;;;2.00;;
49450;SDS011;35336;48.400;10.886;2023-04-03T00:35:00;3.28;;;1.70;;
49450;SDS011;35336;48.400;10.886;2023-04-03T00:35:15;2.43;;;1.77;;
49450;SDS011;35336;48.400;10.886;2023-04-03T00:35:31;2.10;;;1.65;;
49450;SDS011;35336;48.400;10.886;2023-04-03T00:35:47;3.28;;;1.55;;
49450;SDS011;35336;48.400;10.886;2023-04-03T00:36:07;3.33;;;1.90;;
49450;SDS011;35336;48.400;10.886;2023-04-03T00:36:25;3.75;;;1.90;;
49450;SDS011;35336;48.400;10.886;2023-04-03T00:36:41;3.37;;;1.87;;
49450;SDS011;35336;48.400;10.886;2023-04-03T00:36:57;2.83;;;1.90;;
49450;SDS011;35336;48.400;10.886;2023-04-03T00:37:12;2.33;;;1.80;;
49450;SDS011;35336;48.400;10.886;2023-04-03T00:37:28;2.00;;;1.77;;
49450;SDS011;35336;48.400;10.886;2023-04-03T00:37:43;1.70;;;1.60;;
49450;SDS011;35336;48.400;10.886;2023-04-03T00:37:58;2.10;;;1.70;;
49450;SDS011;35336;48.400;10.886;2023-04-03T00:38:14;2.40;;;1.73;;
49450;SDS011;35336;48.400;10.886;2023-04-03T00:38:30;2.60;;;1.70;;
49450;SDS011;35336;48.400;10.886;2023-04-03T00:38:46;2.58;;;1.70;;
49450;SDS011;35336;48.400;10.886;2023-04-03T00:39:01;2.28;;;1.70;;
49450;SDS011;35336;48.400;10.886;2023-04-03T00:39:17;3.50;;;1.70;;
49450;SDS011;35336;48.400;10.886;2023-04-03T00:39:32;3.50;;;1.75;;
49450;SDS011;35336;48.400;10.886;2023-04-03T00:39:48;2.37;;;1.70;;
49450;SDS011;35336;48.400;10.886;2023-04-03T00:40:04;2.70;;;1.60;;
49450;SDS011;35336;48.400;10.886;2023-04-03T00:40:21;2.92;;;1.60;;
49450;SDS011;35336;48.400;10.886;2023-04-03T00:40:41;3.08;;;1.65;;
49450;SDS011;35336;48.400;10.886;2023-04-03T00:40:58;2.58;;;1.70;;
49450;SDS011;35336;48.400;10.886;2023-04-03T00:41:13;2.13;;;1.60;;
49450;SDS011;35336;48.400;10.886;2023-04-03T00:41:28;3.27;;;1.70;;
49450;SDS011;35336;48.400;10.886;2023-04-03T00:41:44;3.37;;;1.80;;
49450;SDS011;35336;48.400;10.886;2023-04-03T00:41:59;3.22;;;1.80;;
49450;SDS011;35336;48.400;10.886;2023-04-03T00:42:14;3.07;;;1.77;;
49450;SDS011;35336;48.400;10.886;2023-04-03T00:42:30;2.17;;;1.67;;
49450;SDS011;35336;48.400;10.886;2023-04-03T00:42:45;2.43;;;1.70;;
49450;SDS011;35336;48.400;10.886;2023-04-03T00:43:05;3.70;;;1.80;;
49450;SDS011;35336;48.400;10.886;2023-04-03T00:43:28;4.47;;;1.88;;
49450;SDS011;35336;48.400;10.886;2023-04-03T00:43:43;2.78;;;1.70;;
49450;SDS011;35336;48.400;10.886;2023-04-03T00:43:58;1.50;;;1.40;;
49450;SDS011;35336;48.400;10.886;2023-04-03T00:45:56;2.42;;;1.90;;
49450;SDS011;35336;48.400;10.886;2023-04-03T00:46:13;2.75;;;1.60;;
49450;SDS011;35336;48.400;10.886;2023-04-03T00:46:28;2.47;;;1.50;;
49450;SDS011;35336;48.400;10.886;2023-04-03T00:46:43;2.00;;;1.60;;
49450;SDS011;35336;48.400;10.886;2023-04-03T00:46:59;2.67;;;1.92;;
49450;SDS011;35336;48.400;10.886;2023-04-03T00:47:16;2.65;;;1.85;;
49450;SDS011;35336;48.400;10.886;2023-04-03T00:47:32;2.80;;;1.70;;
49450;SDS011;35336;48.400;10.886;2023-04-03T00:47:48;4.38;;;1.80;;
49450;SDS011;35336;48.400;10.886;2023-04-03T00:48:04;4.13;;;1.53;;
49450;SDS011;35336;48.400;10.886;2023-04-03T00:48:31;2.88;;;1.58;;
49450;SDS011;35336;48.400;10.886;2023-04-03T00:48:58;2.67;;;1.70;;
49450;SDS011;35336;48.400;10.886;2023-04-03T00:49:14;2.40;;;1.60;;
49450;SDS011;35336;48.400;10.886;2023-04-03T00:49:29;1.77;;;1.40;;
49450;SDS011;35336;48.400;10.886;2023-04-03T00:49:44;1.70;;;1.40;;
49450;SDS011;35336;48.400;10.886;2023-04-03T00:50:00;2.25;;;1.60;;
49450;SDS011;35336;48.400;10.886;2023-04-03T00:50:16;3.00;;;1.60;;
49450;SDS011;35336;48.400;10.886;2023-04-03T00:50:33;2.72;;;1.50;;
49450;SDS011;35336;48.400;10.886;2023-04-03T00:50:51;2.85;;;1.52;;
49450;SDS011;35336;48.400;10.886;2023-04-03T00:51:08;2.55;;;1.60;;
49450;SDS011;35336;48.400;10.886;2023-04-03T00:51:27;3.03;;;1.65;;
49450;SDS011;35336;48.400;10.886;2023-04-03T00:51:43;4.55;;;1.70;;
49450;SDS011;35336;48.400;10.886;2023-04-03T00:51:58;4.40;;;2.00;;
49450;SDS011;35336;48.400;10.886;2023-04-03T00:52:16;3.42;;;1.98;;
49450;SDS011;35336;48.400;10.886;2023-04-03T00:52:33;2.50;;;1.52;;
49450;SDS011;35336;48.400;10.886;2023-04-03T00:52:49;2.67;;;1.70;;
49450;SDS011;35336;48.400;10.886;2023-04-03T00:53:06;2.95;;;1.95;;
49450;SDS011;35336;48.400;10.886;2023-04-03T00:53:26;2.90;;;1.70;;
49450;SDS011;35336;48.400;10.886;2023-04-03T00:53:49;2.72;;;1.58;;
49450;SDS011;35336;48.400;10.886;2023-04-03T00:54:07;2.95;;;1.42;;
49450;SDS011;35336;48.400;10.886;2023-04-03T00:54:23;3.85;;;1.52;;
49450;SDS011;35336;48.400;10.886;2023-04-03T00:54:39;3.15;;;1.73;;
49450;SDS011;35336;48.400;10.886;2023-04-03T00:55:05;2.22;;;1.60;;
49450;SDS011;35336;48.400;10.886;2023-04-03T00:55:22;2.50;;;1.70;;
49450;SDS011;35336;48.400;10.886;2023-04-03T00:55:38;1.90;;;1.63;;
49450;SDS011;35336;48.400;10.886;2023-04-03T00:55:54;1.98;;;1.60;;
49450;SDS011;35336;48.400;10.886;2023-04-03T00:56:12;2.45;;;1.55;;
49450;SDS011;35336;48.400;10.886;2023-04-03T00:56:29;3.63;;;1.50;;
49450;SDS011;35336;48.400;10.886;2023-04-03T00:56:46;2.53;;;1.70;;
49450;SDS011;35336;48.400;10.886;2023-04-03T00:57:01;2.00;;;1.60;;
49450;SDS011;35336;48.400;10.886;2023-04-03T00:57:18;2.35;;;1.60;;
49450;SDS011;35336;48.400;10.886;2023-04-03T00:57:33;2.40;;;1.67;;
49450;SDS011;35336;48.400;10.886;2023-04-03T00:57:49;1.92;;;1.50;;
49450;SDS011;35336;48.400;10.886;2023-04-03T00:58:05;2.38;;;1.60;;
49450;SDS011;35336;48.400;10.886;2023-04-03T00:58:22;1.95;;;1.50;;
49450;SDS011;35336;48.400;10.886;2023-04-03T00:58:50;3.05;;;1.70;;
49450;SDS011;35336;48.400;10.886;2023-04-03T00:59:19;3.50;;;1.60;;
49450;SDS011;35336;48.400;10.886;2023-04-03T00:59:39;3.22;;;1.67;;
49450;SDS011;35336;48.400;10.886;2023-04-03T00:59:59;4.68;;;1.83;;
49450;SDS011;35336;48.400;10.886;2023-04-03T01:00:19;3.65;;;1.70;;
49450;SDS011;35336;48.400;10.886;2023-04-03T01:00:36;2.53;;;1.48;;
49450;SDS011;35336;48.400;10.886;2023-04-03T01:00:55;2.88;;;1.67;;
49450;SDS011;35336;48.400;10.886;2023-04-03T01:01:15;2.80;;;2.00;;
49450;SDS011;35336;48.400;10.886;2023-04-03T01:01:33;2.65;;;1.92;;
49450;SDS011;35336;48.400;10.886;2023-04-03T01:01:49;2.15;;;1.60;;
49450;SDS011;35336;48.400;10.886;2023-04-03T01:02:04;2.20;;;1.60;;
49450;SDS011;35336;48.400;10.886;2023-04-03T01:02:19;2.10;;;1.60;;
49450;SDS011;35336;48.400;10.886;2023-04-03T01:02:35;2.10;;;1.37;;
49450;SDS011;35336;48.400;10.886;2023-04-03T01:02:51;3.15;;;1.50;;
49450;SDS011;35336;48.400;10.886;2023-04-03T01:03:06;3.92;;;1.80;;
49450;SDS011;35336;48.400;10.886;2023-04-03T01:03:22;4.60;;;1.90;;
49450;SDS011;35336;48.400;10.886;2023-04-03T01:03:38;3.28;;;1.70;;
49450;SDS011;35336;48.400;10.886;2023-04-03T01:03:53;2.33;;;1.48;;
49450;SDS011;35336;48.400;10.886;2023-04-03T01:04:29;2.33;;;1.50;;
49450;SDS011;35336;48.400;10.886;2023-04-03T01:04:50;2.67;;;1.48;;
49450;SDS011;35336;48.400;10.886;2023-04-03T01:05:06;2.30;;;1.60;;
49450;SDS011;35336;48.400;10.886;2023-04-03T01:05:22;1.95;;;1.50;;
49450;SDS011;35336;48.400;10.886;2023-04-03T01:05:37;2.40;;;1.60;;
49450;SDS011;35336;48.400;10.886;2023-04-03T01:05:53;1.90;;;1.50;;
49450;SDS011;35336;48.400;10.886;2023-04-03T01:06:08;2.03;;;1.33;;
49450;SDS011;35336;48.400;10.886;2023-04-03T01:06:25;2.57;;;1.53;;
49450;SDS011;35336;48.400;10.886;2023-04-03T01:06:44;3.00;;;1.80;;
49450;SDS011;35336;48.400;10.886;2023-04-03T01:07:01;1.73;;;1.40;;
49450;SDS011;35336;48.400;10.886;2023-04-03T01:07:23;2.97;;;1.55;;
49450;SDS011;35336;48.400;10.886;2023-04-03T01:07:43;3.13;;;1.52;;
49450;SDS011;35336;48.400;10.886;2023-04-03T01:07:59;2.53;;;1.50;;
49450;SDS011;35336;48.400;10.886;2023-04-03T01:08:15;4.65;;;1.40;;
49450;SDS011;35336;48.400;10.886;2023-04-03T01:08:30;4.67;;;1.40;;
49450;SDS011;35336;48.400;10.886;2023-04-03T01:08:47;2.25;;;1.48;;
49450;SDS011;35336;48.400;10.886;2023-04-03T01:09:04;2.63;;;1.58;;
49450;SDS011;35336;48.400;10.886;2023-04-03T01:09:20;2.93;;;1.70;;
49450;SDS011;35336;48.400;10.886;2023-04-03T01:09:35;3.00;;;1.67;;
49450;SDS011;35336;48.400;10.886;2023-04-03T01:09:51;2.63;;;1.48;;
49450;SDS011;35336;48.400;10.886;2023-04-03T01:10:11;2.45;;;1.55;;
49450;SDS011;35336;48.400;10.886;2023-04-03T01:10:29;1.90;;;1.40;;
49450;SDS011;35336;48.400;10.886;2023-04-03T01:10:44;2.00;;;1.40;;
49450;SDS011;35336;48.400;10.886;2023-04-03T01:10:59;1.73;;;1.30;;
49450;SDS011;35336;48.400;10.886;2023-04-03T01:11:15;2.13;;;1.40;;
49450;SDS011;35336;48.400;10.886;2023-04-03T01:11:30;2.20;;;1.50;;
49450;SDS011;35336;48.400;10.886;2023-04-03T01:11:46;1.53;;;1.30;;
49450;SDS011;35336;48.400;10.886;2023-04-03T01:12:14;1.73;;;1.40;;
49450;SDS011;35336;48.400;10.886;2023-04-03T01:12:36;3.08;;;1.55;;
49450;SDS011;35336;48.400;10.886;2023-04-03T01:12:53;1.55;;;1.20;;
49450;SDS011;35336;48.400;10.886;2023-04-03T01:13:39;2.25;;;1.33;;
49450;SDS011;35336;48.400;10.886;2023-04-03T01:13:54;2.30;;;1.27;;
49450;SDS011;35336;48.400;10.886;2023-04-03T01:14:09;1.80;;;1.40;;
49450;SDS011;35336;48.400;10.886;2023-04-03T01:14:25;2.17;;;1.50;;
49450;SDS011;35336;48.400;10.886;2023-04-03T01:14:40;2.37;;;1.50;;
49450;SDS011;35336;48.400;10.886;2023-04-03T01:14:56;1.83;;;1.40;;
49450;SDS011;35336;48.400;10.886;2023-04-03T01:15:21;1.42;;;1.30;;
49450;SDS011;35336;48.400;10.886;2023-04-03T01:15:39;2.13;;;1.30;;
49450;SDS011;35336;48.400;10.886;2023-04-03T01:15:54;2.53;;;1.40;;
49450;SDS011;35336;48.400;10.886;2023-04-03T01:16:09;1.97;;;1.30;;
49450;SDS011;35336;48.400;10.886;2023-04-03T01:16:25;1.50;;;1.33;;
49450;SDS011;35336;48.400;10.886;2023-04-03T01:16:40;1.63;;;1.40;;
49450;SDS011;35336;48.400;10.886;2023-04-03T01:16:55;1.80;;;1.30;;
49450;SDS011;35336;48.400;10.886;2023-04-03T01:17:48;2.08;;;1.40;;
49450;SDS011;35336;48.400;10.886;2023-04-03T01:18:09;2.47;;;1.35;;
49450;SDS011;35336;48.400;10.886;2023-04-03T01:18:25;2.20;;;1.33;;
49450;SDS011;35336;48.400;10.886;2023-04-03T01:18:41;2.55;;;1.40;;
49450;SDS011;35336;48.400;10.886;2023-04-03T01:18:57;2.63;;;1.50;;
49450;SDS011;35336;48.400;10.886;2023-04-03T01:19:14;2.15;;;1.40;;
49450;SDS011;35336;48.400;10.886;2023-04-03T01:19:32;1.80;;;1.38;;
49450;SDS011;35336;48.400;10.886;2023-04-03T01:20:00;1.85;;;1.33;;
49450;SDS011;35336;48.400;10.886;2023-04-03T01:21:09;1.95;;;1.45;;
49450;SDS011;35336;48.400;10.886;2023-04-03T01:22:04;2.80;;;1.55;;
49450;SDS011;35336;48.400;10.886;2023-04-03T01:22:35;2.17;;;1.60;;
49450;SDS011;35336;48.400;10.886;2023-04-03T01:23:59;4.85;;;1.90;;
49450;SDS011;35336;48.400;10.886;2023-04-03T01:24:46;1.85;;;1.20;;
49450;SDS011;35336;48.400;10.886;2023-04-03T01:25:02;2.57;;;1.30;;
49450;SDS011;35336;48.400;10.886;2023-04-03T01:25:17;3.17;;;1.30;;
49450;SDS011;35336;48.400;10.886;2023-04-03T01:25:33;2.50;;;1.30;;
49450;SDS011;35336;48.400;10.886;2023-04-03T01:25:50;1.75;;;1.20;;
49450;SDS011;35336;48.400;10.886;2023-04-03T01:26:08;1.48;;;1.38;;
49450;SDS011;35336;48.400;10.886;2023-04-03T01:26:24;1.53;;;1.43;;
49450;SDS011;35336;48.400;10.886;2023-04-03T01:26:39;2.08;;;1.33;;
49450;SDS011;35336;48.400;10.886;2023-04-03T01:26:55;2.43;;;1.40;;
49450;SDS011;35336;48.400;10.886;2023-04-03T01:27:10;2.20;;;1.35;;
49450;SDS011;35336;48.400;10.886;2023-04-03T01:27:26;2.80;;;1.30;;
49450;SDS011;35336;48.400;10.886;2023-04-03T01:27:41;3.27;;;1.40;;
49450;SDS011;35336;48.400;10.886;2023-04-03T01:27:57;2.63;;;1.40;;
49450;SDS011;35336;48.400;10.886;2023-04-03T01:28:16;2.30;;;1.40;;
49450;SDS011;35336;48.400;10.886;2023-04-03T01:28:43;3.42;;;1.60;;
49450;SDS011;35336;48.400;10.886;2023-04-03T01:28:59;3.40;;;1.60;;
49450;SDS011;35336;48.400;10.886;2023-04-03T01:29:14;3.03;;;1.50;;
49450;SDS011;35336;48.400;10.886;2023-04-03T01:29:30;2.87;;;1.40;;
49450;SDS011;35336;48.400;10.886;2023-04-03T01:29:45;1.92;;;1.23;;
49450;SDS011;35336;48.400;10.886;2023-04-03T01:30:01;1.70;;;1.30;;
49450;SDS011;35336;48.400;10.886;2023-04-03T01:30:17;2.13;;;1.47;;
49450;SDS011;35336;48.400;10.886;2023-04-03T01:30:35;2.67;;;1.50;;
49450;SDS011;35336;48.400;10.886;2023-04-03T01:31:45;1.40;;;1.30;;
49450;SDS011;35336;48.400;10.886;2023-04-03T01:32:01;1.50;;;1.23;;
49450;SDS011;35336;48.400;10.886;2023-04-03T01:32:17;2.38;;;1.73;;
49450;SDS011;35336;48.400;10.886;2023-04-03T01:32:33;2.17;;;1.80;;
49450;SDS011;35336;48.400;10.886;2023-04-03T01:32:48;1.63;;;1.40;;
49450;SDS011;35336;48.400;10.886;2023-04-03T01:33:03;1.57;;;1.20;;
49450;SDS011;35336;48.400;10.886;2023-04-03T01:33:19;2.03;;;1.30;;
49450;SDS011;35336;48.400;10.886;2023-04-03T01:33:35;3.05;;;1.63;;
49450;SDS011;35336;48.400;10.886;2023-04-03T01:33:52;3.03;;;1.80;;
49450;SDS011;35336;48.400;10.886;2023-04-03T01:34:08;2.95;;;1.70;;
49450;SDS011;35336;48.400;10.886;2023-04-03T01:34:23;2.27;;;1.37;;
49450;SDS011;35336;48.400;10.886;2023-04-03T01:34:39;1.80;;;1.40;;
49450;SDS011;35336;48.400;10.886;2023-04-03T01:34:55;1.67;;;1.30;;
49450;SDS011;35336;48.400;10.886;2023-04-03T01:35:10;1.50;;;1.23;;
49450;SDS011;35336;48.400;10.886;2023-04-03T01:35:26;3.55;;;1.40;;
49450;SDS011;35336;48.400;10.886;2023-04-03T01:35:41;4.83;;;1.40;;
49450;SDS011;35336;48.400;10.886;2023-04-03T01:35:57;4.50;;;1.38;;
49450;SDS011;35336;48.400;10.886;2023-04-03T01:36:17;3.67;;;1.40;;
49450;SDS011;35336;48.400;10.886;2023-04-03T01:36:43;2.08;;;1.10;;
49450;SDS011;35336;48.400;10.886;2023-04-03T01:36:59;1.90;;;1.25;;
49450;SDS011;35336;48.400;10.886;2023-04-03T01:37:14;1.67;;;1.40;;
49450;SDS011;35336;48.400;10.886;2023-04-03T01:37:29;2.17;;;1.73;;
49450;SDS011;35336;48.400;10.886;2023-04-03T01:37:45;2.28;;;1.67;;
49450;SDS011;35336;48.400;10.886;2023-04-03T01:38:00;1.80;;;1.40;;
49450;SDS011;35336;48.400;10.886;2023-04-03T01:38:15;2.60;;;1.50;;
49450;SDS011;35336;48.400;10.886;2023-04-03T01:38:31;2.70;;;1.50;;
49450;SDS011;35336;48.400;10.886;2023-04-03T01:38:46;2.13;;;1.60;;
49450;SDS011;35336;48.400;10.886;2023-04-03T01:39:02;2.65;;;1.70;;
49450;SDS011;35336;48.400;10.886;2023-04-03T01:39:18;2.17;;;1.38;;
49450;SDS011;35336;48.400;10.886;2023-04-03T01:39:34;2.22;;;1.25;;
49450;SDS011;35336;48.400;10.886;2023-04-03T01:39:49;4.00;;;1.37;;
49450;SDS011;35336;48.400;10.886;2023-04-03T01:40:05;4.68;;;1.40;;
49450;SDS011;35336;48.400;10.886;2023-04-03T01:40:21;3.80;;;1.70;;
49450;SDS011;35336;48.400;10.886;2023-04-03T01:40:36;2.93;;;1.70;;
49450;SDS011;35336;48.400;10.886;2023-04-03T01:40:51;2.00;;;1.40;;
49450;SDS011;35336;48.400;10.886;2023-04-03T01:41:07;1.60;;;1.30;;
49450;SDS011;35336;48.400;10.886;2023-04-03T01:41:22;2.30;;;1.30;;
49450;SDS011;35336;48.400;10.886;2023-04-03T01:41:38;2.45;;;1.40;;
49450;SDS011;35336;48.400;10.886;2023-04-03T01:41:53;2.33;;;1.50;;
49450;SDS011;35336;48.400;10.886;2023-04-03T01:42:08;2.90;;;1.50;;
49450;SDS011;35336;48.400;10.886;2023-04-03T01:42:24;2.70;;;1.42;;
49450;SDS011;35336;48.400;10.886;2023-04-03T01:42:39;1.63;;;1.40;;
49450;SDS011;35336;48.400;10.886;2023-04-03T01:42:54;2.17;;;1.40;;
49450;SDS011;35336;48.400;10.886;2023-04-03T01:43:10;2.35;;;1.50;;
49450;SDS011;35336;48.400;10.886;2023-04-03T01:43:25;3.33;;;1.63;;
49450;SDS011;35336;48.400;10.886;2023-04-03T01:43:40;3.77;;;1.70;;
49450;SDS011;35336;48.400;10.886;2023-04-03T01:43:56;2.27;;;1.50;;
49450;SDS011;35336;48.400;10.886;2023-04-03T01:44:11;3.57;;;1.40;;